sensor_id;sensor_type;location;lat;lon;timestamp;P1;durP1;ratioP1;P2;durP2;ratioP2
24631;SDS011;59977;48.782;9.190;2024-01-16T16:38:44;16.92;;;3.88;;
24631;SDS011;59977;48.782;9.190;2024-01-16T16:41:10;11.98;;;3.50;;
24631;SDS011;59977;48.782;9.190;2024-01-16T16:43:35;14.50;;;4.38;;
24631;SDS011;59977;48.782;9.190;2024-01-16T16:46:01;13.45;;;3.75;;
24631;SDS011;59977;48.782;9.190;2024-01-16T16:48:28;14.82;;;3.53;;
24631;SDS011;59977;48.782;9.190;2024-01-16T16:50:54;17.25;;;4.00;;
24631;SDS011;59977;48.782;9.190;2024-01-16T16:53:19;20.35;;;4.18;;
24631;SDS011;59977;48.782;9.190;2024-01-16T16:55:45;14.50;;;3.95;;
24631;SDS011;59977;48.782;9.190;2024-01-16T16:58:11;14.38;;;4.25;;
24631;SDS011;59977;48.782;9.190;2024-01-16T17:00:37;18.58;;;4.15;;
24631;SDS011;59977;48.782;9.190;2024-01-16T17:03:04;16.77;;;4.95;;
24631;SDS011;59977;48.782;9.190;2024-01-16T17:05:29;17.23;;;4.20;;
24631;SDS011;59977;48.782;9.190;2024-01-16T17:07:55;20.88;;;4.45;;
24631;SDS011;59977;48.782;9.190;2024-01-16T17:10:20;18.85;;;4.40;;
24631;SDS011;59977;48.782;9.190;2024-01-16T17:12:50;11.65;;;4.43;;
24631;SDS011;59977;48.782;9.190;2024-01-16T17:15:16;25.80;;;4.38;;
24631;SDS011;59977;48.782;9.190;2024-01-16T17:17:42;14.10;;;4.13;;
24631;SDS011;59977;48.782;9.190;2024-01-16T17:20:08;17.08;;;4.22;;
24631;SDS011;59977;48.782;9.190;2024-01-16T17:22:38;12.27;;;4.38;;
24631;SDS011;59977;48.782;9.190;2024-01-16T17:25:06;20.60;;;4.40;;
24631;SDS011;59977;48.782;9.190;2024-01-16T17:27:32;23.05;;;5.28;;
24631;SDS011;59977;48.782;9.190;2024-01-16T17:29:58;13.90;;;4.18;;
24631;SDS011;59977;48.782;9.190;2024-01-16T17:32:24;12.35;;;4.40;;
24631;SDS011;59977;48.782;9.190;2024-01-16T17:34:49;22.58;;;4.88;;
24631;SDS011;59977;48.782;9.190;2024-01-16T17:37:15;10.27;;;4.68;;
24631;SDS011;59977;48.782;9.190;2024-01-16T17:39:45;16.25;;;4.97;;
24631;SDS011;59977;48.782;9.190;2024-01-16T17:42:11;18.02;;;4.38;;
24631;SDS011;59977;48.782;9.190;2024-01-16T17:44:49;16.38;;;5.10;;
24631;SDS011;59977;48.782;9.190;2024-01-16T17:47:15;15.38;;;5.25;;
24631;SDS011;59977;48.782;9.190;2024-01-16T17:49:41;18.95;;;5.10;;
24631;SDS011;59977;48.782;9.190;2024-01-16T17:52:08;14.73;;;5.00;;
24631;SDS011;59977;48.782;9.190;2024-01-16T17:54:40;22.45;;;5.65;;
24631;SDS011;59977;48.782;9.190;2024-01-16T17:57:06;21.38;;;5.43;;
24631;SDS011;59977;48.782;9.190;2024-01-16T17:59:32;18.52;;;5.65;;
24631;SDS011;59977;48.782;9.190;2024-01-16T18:01:59;21.65;;;6.28;;
24631;SDS011;59977;48.782;9.190;2024-01-16T18:04:25;19.20;;;5.97;;
24631;SDS011;59977;48.782;9.190;2024-01-16T18:06:50;20.05;;;5.70;;
24631;SDS011;59977;48.782;9.190;2024-01-16T18:09:17;33.55;;;6.32;;
24631;SDS011;59977;48.782;9.190;2024-01-16T18:11:55;21.55;;;6.10;;
24631;SDS011;59977;48.782;9.190;2024-01-16T18:14:22;21.23;;;6.07;;
24631;SDS011;59977;48.782;9.190;2024-01-16T18:16:49;15.80;;;5.95;;
24631;SDS011;59977;48.782;9.190;2024-01-16T18:19:16;19.23;;;6.90;;
24631;SDS011;59977;48.782;9.190;2024-01-16T18:21:45;18.85;;;6.53;;
24631;SDS011;59977;48.782;9.190;2024-01-16T18:24:11;19.10;;;7.03;;
24631;SDS011;59977;48.782;9.190;2024-01-16T18:26:40;19.50;;;6.72;;
24631;SDS011;59977;48.782;9.190;2024-01-16T18:29:06;24.88;;;6.78;;
24631;SDS011;59977;48.782;9.190;2024-01-16T18:31:31;25.48;;;6.88;;
24631;SDS011;59977;48.782;9.190;2024-01-16T18:33:57;18.42;;;6.97;;
24631;SDS011;59977;48.782;9.190;2024-01-16T18:36:22;24.58;;;7.00;;
24631;SDS011;59977;48.782;9.190;2024-01-16T18:38:48;25.67;;;7.05;;
24631;SDS011;59977;48.782;9.190;2024-01-16T18:41:15;21.67;;;6.93;;
24631;SDS011;59977;48.782;9.190;2024-01-16T18:43:42;20.08;;;7.63;;
24631;SDS011;59977;48.782;9.190;2024-01-16T18:46:08;18.15;;;6.93;;
24631;SDS011;59977;48.782;9.190;2024-01-16T18:48:35;18.35;;;7.50;;
24631;SDS011;59977;48.782;9.190;2024-01-16T18:51:00;16.80;;;7.25;;
24631;SDS011;59977;48.782;9.190;2024-01-16T18:53:26;24.83;;;7.28;;
24631;SDS011;59977;48.782;9.190;2024-01-16T18:55:52;21.83;;;7.55;;
24631;SDS011;59977;48.782;9.190;2024-01-16T18:58:19;17.30;;;7.03;;
24631;SDS011;59977;48.782;9.190;2024-01-16T19:00:45;22.00;;;7.68;;
24631;SDS011;59977;48.782;9.190;2024-01-16T19:03:11;16.30;;;7.10;;
24631;SDS011;59977;48.782;9.190;2024-01-16T19:05:39;20.85;;;7.45;;
24631;SDS011;59977;48.782;9.190;2024-01-16T19:08:04;25.75;;;7.65;;
24631;SDS011;59977;48.782;9.190;2024-01-16T19:10:32;14.07;;;7.47;;
24631;SDS011;59977;48.782;9.190;2024-01-16T19:12:58;24.90;;;7.93;;
24631;SDS011;59977;48.782;9.190;2024-01-16T19:15:25;19.45;;;7.78;;
24631;SDS011;59977;48.782;9.190;2024-01-16T19:17:50;20.17;;;7.85;;
24631;SDS011;59977;48.782;9.190;2024-01-16T19:20:17;27.52;;;8.20;;
24631;SDS011;59977;48.782;9.190;2024-01-16T19:22:46;16.17;;;8.05;;
24631;SDS011;59977;48.782;9.190;2024-01-16T19:25:14;24.75;;;8.45;;
24631;SDS011;59977;48.782;9.190;2024-01-16T19:27:41;25.23;;;8.68;;
24631;SDS011;59977;48.782;9.190;2024-01-16T19:30:12;21.42;;;8.57;;
24631;SDS011;59977;48.782;9.190;2024-01-16T19:32:42;30.15;;;8.68;;
24631;SDS011;59977;48.782;9.190;2024-01-16T19:35:08;20.05;;;8.15;;
24631;SDS011;59977;48.782;9.190;2024-01-16T19:37:34;24.33;;;7.95;;
24631;SDS011;59977;48.782;9.190;2024-01-16T19:40:00;24.23;;;8.90;;
24631;SDS011;59977;48.782;9.190;2024-01-16T19:42:27;18.15;;;8.23;;
24631;SDS011;59977;48.782;9.190;2024-01-16T19:44:53;23.63;;;8.48;;
24631;SDS011;59977;48.782;9.190;2024-01-16T19:47:19;21.30;;;8.45;;
24631;SDS011;59977;48.782;9.190;2024-01-16T19:49:46;19.02;;;8.18;;
24631;SDS011;59977;48.782;9.190;2024-01-16T19:52:12;22.40;;;9.23;;
24631;SDS011;59977;48.782;9.190;2024-01-16T19:54:37;20.60;;;8.63;;
24631;SDS011;59977;48.782;9.190;2024-01-16T19:57:04;23.00;;;8.93;;
24631;SDS011;59977;48.782;9.190;2024-01-16T19:59:30;26.30;;;9.18;;
24631;SDS011;59977;48.782;9.190;2024-01-16T20:01:56;20.50;;;8.80;;
24631;SDS011;59977;48.782;9.190;2024-01-16T20:04:22;22.80;;;8.45;;
24631;SDS011;59977;48.782;9.190;2024-01-16T20:06:47;24.50;;;8.27;;
24631;SDS011;59977;48.782;9.190;2024-01-16T20:09:15;20.42;;;8.35;;
24631;SDS011;59977;48.782;9.190;2024-01-16T20:11:43;21.80;;;8.40;;
24631;SDS011;59977;48.782;9.190;2024-01-16T20:14:12;23.60;;;8.45;;
24631;SDS011;59977;48.782;9.190;2024-01-16T20:16:38;23.17;;;9.13;;
24631;SDS011;59977;48.782;9.190;2024-01-16T20:19:04;17.40;;;8.95;;
24631;SDS011;59977;48.782;9.190;2024-01-16T20:21:32;30.90;;;9.32;;
24631;SDS011;59977;48.782;9.190;2024-01-16T20:24:00;24.65;;;8.68;;
24631;SDS011;59977;48.782;9.190;2024-01-16T20:26:27;23.60;;;8.77;;
24631;SDS011;59977;48.782;9.190;2024-01-16T20:28:53;30.73;;;10.70;;
24631;SDS011;59977;48.782;9.190;2024-01-16T20:31:19;22.88;;;9.68;;
24631;SDS011;59977;48.782;9.190;2024-01-16T20:33:45;24.25;;;9.73;;
24631;SDS011;59977;48.782;9.190;2024-01-16T20:36:17;39.00;;;10.23;;
24631;SDS011;59977;48.782;9.190;2024-01-16T20:38:43;29.05;;;9.60;;
24631;SDS011;59977;48.782;9.190;2024-01-16T20:41:09;17.38;;;9.13;;
24631;SDS011;59977;48.782;9.190;2024-01-16T20:43:36;27.50;;;9.27;;
24631;SDS011;59977;48.782;9.190;2024-01-16T20:46:02;21.90;;;9.20;;
24631;SDS011;59977;48.782;9.190;2024-01-16T20:48:31;26.73;;;9.30;;
24631;SDS011;59977;48.782;9.190;2024-01-16T20:50:58;29.40;;;8.90;;
24631;SDS011;59977;48.782;9.190;2024-01-16T20:53:27;23.75;;;9.20;;
24631;SDS011;59977;48.782;9.190;2024-01-16T20:55:53;24.40;;;9.93;;
24631;SDS011;59977;48.782;9.190;2024-01-16T20:58:19;26.25;;;9.05;;
24631;SDS011;59977;48.782;9.190;2024-01-16T21:00:46;26.73;;;9.93;;
24631;SDS011;59977;48.782;9.190;2024-01-16T21:03:16;27.83;;;9.80;;
24631;SDS011;59977;48.782;9.190;2024-01-16T21:05:45;30.90;;;9.23;;
24631;SDS011;59977;48.782;9.190;2024-01-16T21:08:11;29.92;;;9.77;;
24631;SDS011;59977;48.782;9.190;2024-01-16T21:10:37;29.45;;;10.48;;
24631;SDS011;59977;48.782;9.190;2024-01-16T21:13:04;23.45;;;9.30;;
24631;SDS011;59977;48.782;9.190;2024-01-16T21:15:30;21.42;;;9.43;;
24631;SDS011;59977;48.782;9.190;2024-01-16T21:17:59;24.70;;;9.70;;
24631;SDS011;59977;48.782;9.190;2024-01-16T21:20:25;25.10;;;10.18;;
24631;SDS011;59977;48.782;9.190;2024-01-16T21:22:51;19.52;;;9.88;;
24631;SDS011;59977;48.782;9.190;2024-01-16T21:25:19;23.73;;;9.68;;
24631;SDS011;59977;48.782;9.190;2024-01-16T21:27:47;27.67;;;10.10;;
24631;SDS011;59977;48.782;9.190;2024-01-16T21:30:13;28.15;;;9.07;;
24631;SDS011;59977;48.782;9.190;2024-01-16T21:32:39;29.70;;;9.98;;
24631;SDS011;59977;48.782;9.190;2024-01-16T21:35:06;29.27;;;9.63;;
24631;SDS011;59977;48.782;9.190;2024-01-16T21:37:34;31.00;;;10.32;;
24631;SDS011;59977;48.782;9.190;2024-01-16T21:40:00;44.90;;;10.73;;
24631;SDS011;59977;48.782;9.190;2024-01-16T21:42:26;30.92;;;9.95;;
24631;SDS011;59977;48.782;9.190;2024-01-16T21:44:51;23.50;;;9.40;;
24631;SDS011;59977;48.782;9.190;2024-01-16T21:47:18;28.08;;;8.80;;
24631;SDS011;59977;48.782;9.190;2024-01-16T21:49:48;24.13;;;10.07;;
24631;SDS011;59977;48.782;9.190;2024-01-16T21:52:14;28.63;;;9.40;;
24631;SDS011;59977;48.782;9.190;2024-01-16T21:54:40;30.88;;;11.05;;
24631;SDS011;59977;48.782;9.190;2024-01-16T21:57:06;23.75;;;9.23;;
24631;SDS011;59977;48.782;9.190;2024-01-16T21:59:33;24.23;;;9.35;;
24631;SDS011;59977;48.782;9.190;2024-01-16T22:01:59;19.10;;;9.25;;
24631;SDS011;59977;48.782;9.190;2024-01-16T22:04:25;20.27;;;9.05;;
24631;SDS011;59977;48.782;9.190;2024-01-16T22:06:52;25.27;;;9.45;;
24631;SDS011;59977;48.782;9.190;2024-01-16T22:09:17;20.55;;;9.23;;
24631;SDS011;59977;48.782;9.190;2024-01-16T22:11:46;27.58;;;10.02;;
24631;SDS011;59977;48.782;9.190;2024-01-16T22:14:12;23.55;;;10.15;;
24631;SDS011;59977;48.782;9.190;2024-01-16T22:16:38;17.60;;;8.43;;
24631;SDS011;59977;48.782;9.190;2024-01-16T22:19:03;24.98;;;9.95;;
24631;SDS011;59977;48.782;9.190;2024-01-16T22:21:29;27.25;;;9.80;;
24631;SDS011;59977;48.782;9.190;2024-01-16T22:23:56;27.15;;;9.57;;
24631;SDS011;59977;48.782;9.190;2024-01-16T22:26:22;20.50;;;9.45;;
24631;SDS011;59977;48.782;9.190;2024-01-16T22:28:47;22.40;;;9.75;;
24631;SDS011;59977;48.782;9.190;2024-01-16T22:31:13;28.95;;;8.95;;
24631;SDS011;59977;48.782;9.190;2024-01-16T22:33:39;21.27;;;10.23;;
24631;SDS011;59977;48.782;9.190;2024-01-16T22:36:04;23.48;;;9.80;;
24631;SDS011;59977;48.782;9.190;2024-01-16T22:38:30;25.35;;;9.90;;
24631;SDS011;59977;48.782;9.190;2024-01-16T22:40:56;21.50;;;10.07;;
24631;SDS011;59977;48.782;9.190;2024-01-16T22:43:22;23.00;;;9.85;;
24631;SDS011;59977;48.782;9.190;2024-01-16T22:45:48;22.92;;;9.75;;
24631;SDS011;59977;48.782;9.190;2024-01-16T22:48:14;25.98;;;10.35;;
24631;SDS011;59977;48.782;9.190;2024-01-16T22:50:40;36.83;;;10.57;;
24631;SDS011;59977;48.782;9.190;2024-01-16T22:53:06;23.67;;;10.40;;
24631;SDS011;59977;48.782;9.190;2024-01-16T22:55:33;25.77;;;10.10;;
24631;SDS011;59977;48.782;9.190;2024-01-16T22:57:59;27.85;;;10.07;;
24631;SDS011;59977;48.782;9.190;2024-01-16T23:00:25;29.20;;;9.93;;
24631;SDS011;59977;48.782;9.190;2024-01-16T23:02:54;24.55;;;9.98;;
24631;SDS011;59977;48.782;9.190;2024-01-16T23:05:20;23.73;;;9.98;;
24631;SDS011;59977;48.782;9.190;2024-01-16T23:07:47;23.70;;;9.80;;
24631;SDS011;59977;48.782;9.190;2024-01-16T23:10:13;27.80;;;10.52;;
24631;SDS011;59977;48.782;9.190;2024-01-16T23:12:39;29.33;;;10.25;;
24631;SDS011;59977;48.782;9.190;2024-01-16T23:15:06;24.52;;;9.65;;
24631;SDS011;59977;48.782;9.190;2024-01-16T23:17:32;27.30;;;10.10;;
24631;SDS011;59977;48.782;9.190;2024-01-16T23:19:58;22.73;;;9.75;;
24631;SDS011;59977;48.782;9.190;2024-01-16T23:22:26;25.70;;;10.82;;
24631;SDS011;59977;48.782;9.190;2024-01-16T23:24:52;28.38;;;10.27;;
24631;SDS011;59977;48.782;9.190;2024-01-16T23:27:18;25.85;;;10.15;;
24631;SDS011;59977;48.782;9.190;2024-01-16T23:29:43;26.70;;;9.82;;
24631;SDS011;59977;48.782;9.190;2024-01-16T23:32:09;25.58;;;10.35;;
24631;SDS011;59977;48.782;9.190;2024-01-16T23:34:35;23.88;;;9.75;;
24631;SDS011;59977;48.782;9.190;2024-01-16T23:37:02;25.75;;;9.88;;
24631;SDS011;59977;48.782;9.190;2024-01-16T23:39:28;24.90;;;10.45;;
24631;SDS011;59977;48.782;9.190;2024-01-16T23:41:55;23.80;;;10.02;;
24631;SDS011;59977;48.782;9.190;2024-01-16T23:44:21;31.08;;;10.20;;
24631;SDS011;59977;48.782;9.190;2024-01-16T23:46:47;25.85;;;10.55;;
24631;SDS011;59977;48.782;9.190;2024-01-16T23:49:13;21.95;;;9.75;;
24631;SDS011;59977;48.782;9.190;2024-01-16T23:51:43;30.13;;;11.00;;
24631;SDS011;59977;48.782;9.190;2024-01-16T23:54:08;26.08;;;10.32;;
24631;SDS011;59977;48.782;9.190;2024-01-16T23:56:34;22.52;;;10.00;;
24631;SDS011;59977;48.782;9.190;2024-01-16T23:58:59;22.77;;;10.18;;
